Terminal Aerodrome Forecast
Issued by NWS

Home | Current Version | Previous Version | Text Only | Print | Product List | Glossary On
Versions: 1 2 3 4 5 6 7 8 9 10 11 12 13 14 15
000
FTUS46 KMTR 250531
TAFSTS
TAF
KSTS 250531Z 2506/2606 16003KT P6SM BKN005
     FM251100 VRB03KT 3SM BR OVC003
     FM251830 VRB03KT P6SM SKC
     FM252100 18009KT P6SM SKC
     FM260500 16005KT P6SM BKN005=

USA.gov is the U.S. government's official web portal to all federal, state and local government web resources and services.